createdAt,value
2023-05-10T00:00:40.751Z,14.93
2023-05-10T00:03:07.319Z,16.85
2023-05-10T00:05:33.717Z,20.40
2023-05-10T00:08:00.330Z,18.23
2023-05-10T00:10:26.998Z,17.00
2023-05-10T00:12:53.393Z,17.85
2023-05-10T00:15:19.813Z,17.80
2023-05-10T00:17:46.207Z,24.00
2023-05-10T00:20:12.805Z,21.90
2023-05-10T00:22:39.272Z,23.90
2023-05-10T00:25:06.436Z,49.15
2023-05-10T00:27:32.784Z,32.03
2023-05-10T00:30:00.331Z,33.60
2023-05-10T00:32:26.880Z,25.60
2023-05-10T00:34:53.213Z,22.43
2023-05-10T00:37:19.546Z,21.77
2023-05-10T00:39:45.978Z,28.95
2023-05-10T00:42:12.290Z,29.38
2023-05-10T00:44:38.837Z,31.73
2023-05-10T00:47:05.380Z,30.80
2023-05-10T00:49:32.142Z,35.17
2023-05-10T00:51:58.716Z,40.15
2023-05-10T00:54:25.339Z,35.65
2023-05-10T00:56:52.672Z,38.25
2023-05-10T00:59:19.820Z,40.53
2023-05-10T01:01:47.177Z,42.70
2023-05-10T01:04:15.289Z,45.67
2023-05-10T01:06:45.622Z,44.67
2023-05-10T01:09:12.911Z,43.40
2023-05-10T01:11:40.875Z,49.77
2023-05-10T01:14:07.644Z,40.35
2023-05-10T01:16:41.813Z,45.72
2023-05-10T01:19:17.506Z,40.20
2023-05-10T01:21:50.757Z,43.97
2023-05-10T01:24:47.617Z,43.80
2023-05-10T01:27:38.660Z,42.53
2023-05-10T01:30:34.765Z,45.08
2023-05-10T01:33:19.946Z,45.65
2023-05-10T01:35:46.205Z,42.00
2023-05-10T01:38:18.893Z,42.63
2023-05-10T01:40:48.140Z,37.90
2023-05-10T01:43:29.043Z,42.60
2023-05-10T01:46:05.601Z,41.85
2023-05-10T01:48:33.174Z,45.33
2023-05-10T01:50:59.987Z,41.40
2023-05-10T01:53:27.652Z,42.35
2023-05-10T01:55:56.102Z,48.30
2023-05-10T01:58:28.363Z,40.70
2023-05-10T02:00:55.596Z,41.83
2023-05-10T02:03:24.914Z,41.67
2023-05-10T02:05:54.038Z,38.63
2023-05-10T02:08:22.727Z,42.17
2023-05-10T02:10:52.433Z,49.75
2023-05-10T02:13:20.421Z,42.78
2023-05-10T02:15:51.809Z,45.70
2023-05-10T02:18:19.445Z,43.72
2023-05-10T02:20:47.972Z,46.42
2023-05-10T02:23:16.320Z,44.65
2023-05-10T02:25:44.768Z,42.88
2023-05-10T02:28:13.089Z,42.00
2023-05-10T02:30:40.015Z,43.40
2023-05-10T02:33:07.204Z,48.45
2023-05-10T02:35:34.995Z,49.58
2023-05-10T02:38:02.077Z,43.97
2023-05-10T02:40:29.493Z,49.17
2023-05-10T02:42:58.316Z,46.40
2023-05-10T02:45:29.808Z,49.38
2023-05-10T02:47:57.190Z,49.80
2023-05-10T02:50:28.265Z,54.50
2023-05-10T02:53:00.590Z,50.83
2023-05-10T02:55:33.541Z,51.40
2023-05-10T02:58:01.875Z,57.25
2023-05-10T03:00:28.242Z,51.60
2023-05-10T03:02:55.092Z,56.20
2023-05-10T03:05:21.725Z,51.00
2023-05-10T03:07:49.344Z,58.03
2023-05-10T03:10:16.201Z,64.80
2023-05-10T03:12:49.244Z,61.33
2023-05-10T03:15:32.519Z,61.33
2023-05-10T03:18:12.092Z,69.23
2023-05-10T03:20:48.374Z,64.47
2023-05-10T03:23:22.514Z,62.97
2023-05-10T03:25:50.189Z,72.93
2023-05-10T03:28:17.590Z,70.22
2023-05-10T03:30:44.730Z,63.93
2023-05-10T03:33:11.937Z,64.88
2023-05-10T03:35:38.307Z,68.53
2023-05-10T03:38:06.519Z,59.72
2023-05-10T03:40:33.399Z,70.63
2023-05-10T03:43:00.363Z,58.43
2023-05-10T03:45:26.951Z,61.65
2023-05-10T03:47:53.658Z,66.50
2023-05-10T03:50:20.567Z,64.38
2023-05-10T03:52:46.903Z,68.55
2023-05-10T03:55:13.505Z,70.20
2023-05-10T03:57:39.890Z,65.53
2023-05-10T04:00:06.953Z,61.58
2023-05-10T04:02:33.365Z,60.08
2023-05-10T04:04:59.747Z,57.22
2023-05-10T04:07:26.083Z,54.03
2023-05-10T04:09:52.466Z,61.25
2023-05-10T04:12:18.826Z,60.25
2023-05-10T04:14:45.188Z,62.25
2023-05-10T04:17:11.954Z,53.15
2023-05-10T04:19:38.478Z,55.93
2023-05-10T04:22:04.826Z,56.90
2023-05-10T04:24:31.292Z,64.38
2023-05-10T04:26:58.016Z,56.67
2023-05-10T04:29:24.413Z,53.20
2023-05-10T04:31:51.913Z,56.63
2023-05-10T04:34:18.394Z,55.45
2023-05-10T04:36:44.719Z,59.88
2023-05-10T04:39:11.465Z,60.38
2023-05-10T04:41:39.075Z,55.45
2023-05-10T04:44:05.587Z,62.03
2023-05-10T04:46:32.014Z,53.35
2023-05-10T04:48:58.440Z,55.50
2023-05-10T04:51:24.814Z,57.88
2023-05-10T04:54:04.503Z,57.72
2023-05-10T04:56:32.265Z,59.40
2023-05-10T04:58:58.660Z,57.25
2023-05-10T05:01:25.103Z,56.25
2023-05-10T05:03:53.346Z,56.20
2023-05-10T05:06:20.041Z,59.33
2023-05-10T05:08:46.394Z,59.93
2023-05-10T05:11:12.763Z,63.13
2023-05-10T05:13:39.826Z,60.47
2023-05-10T05:16:06.558Z,56.55
2023-05-10T05:18:32.962Z,63.03
2023-05-10T05:20:59.451Z,56.23
2023-05-10T05:23:25.840Z,55.83
2023-05-10T05:25:53.398Z,61.90
2023-05-10T05:28:24.029Z,63.50
2023-05-10T05:30:50.361Z,61.15
2023-05-10T05:33:16.680Z,59.73
2023-05-10T05:35:48.377Z,58.00
2023-05-10T05:38:15.156Z,62.72
2023-05-10T05:40:41.493Z,62.70
2023-05-10T05:43:07.834Z,63.83
2023-05-10T05:45:34.241Z,59.07
2023-05-10T05:48:00.675Z,55.65
2023-05-10T05:50:27.162Z,62.75
2023-05-10T05:52:53.546Z,55.53
2023-05-10T05:55:20.201Z,48.78
2023-05-10T05:57:46.858Z,53.13
2023-05-10T06:00:17.364Z,52.97
2023-05-10T06:02:44.115Z,50.40
2023-05-10T06:05:10.762Z,55.35
2023-05-10T06:07:37.204Z,51.08
2023-05-10T06:10:04.083Z,50.97
2023-05-10T06:12:30.756Z,46.30
2023-05-10T06:14:57.070Z,44.80
2023-05-10T06:17:23.463Z,44.20
2023-05-10T06:19:49.843Z,43.25
2023-05-10T06:22:16.974Z,43.43
2023-05-10T06:24:44.697Z,47.28
2023-05-10T06:27:12.145Z,45.90
2023-05-10T06:29:38.681Z,47.60
2023-05-10T06:32:05.478Z,42.72
2023-05-10T06:34:32.611Z,45.00
2023-05-10T06:36:59.120Z,36.03
2023-05-10T06:39:25.482Z,42.25
2023-05-10T06:41:51.877Z,47.05
2023-05-10T06:44:18.220Z,44.67
2023-05-10T06:46:44.693Z,44.00
2023-05-10T06:49:11.216Z,38.47
2023-05-10T06:51:38.081Z,38.70
2023-05-10T06:54:04.433Z,33.35
2023-05-10T06:56:31.121Z,35.75
2023-05-10T06:58:57.452Z,38.63
2023-05-10T07:01:23.922Z,33.80
2023-05-10T07:03:50.458Z,30.55
2023-05-10T07:06:29.503Z,34.15
2023-05-10T07:08:59.678Z,31.23
2023-05-10T07:11:26.055Z,26.83
2023-05-10T07:13:52.376Z,23.73
2023-05-10T07:16:19.025Z,19.33
2023-05-10T07:18:45.502Z,15.32
2023-05-10T07:21:11.854Z,17.88
2023-05-10T07:23:38.219Z,17.50
2023-05-10T07:26:04.858Z,16.50
2023-05-10T07:28:31.259Z,10.25
2023-05-10T07:30:57.889Z,8.88
2023-05-10T07:33:24.278Z,17.85
2023-05-10T07:35:51.022Z,12.07
2023-05-10T07:38:18.410Z,13.77
2023-05-10T07:40:44.848Z,13.93
2023-05-10T07:43:11.454Z,13.90
2023-05-10T07:45:37.859Z,12.32
2023-05-10T07:48:04.362Z,15.77
2023-05-10T07:50:30.760Z,14.90
2023-05-10T07:52:57.460Z,13.00
2023-05-10T07:55:23.858Z,14.98
2023-05-10T07:57:50.322Z,11.57
2023-05-10T08:00:21.218Z,11.07
2023-05-10T08:02:48.534Z,12.55
2023-05-10T08:05:15.701Z,14.20
2023-05-10T08:07:43.520Z,16.85
2023-05-10T08:10:11.883Z,13.05
2023-05-10T08:12:39.139Z,9.80
2023-05-10T08:15:06.237Z,11.88
2023-05-10T08:17:32.697Z,15.43
2023-05-10T08:19:59.114Z,11.95
2023-05-10T08:22:25.467Z,11.82
2023-05-10T08:24:52.027Z,12.97
2023-05-10T08:27:18.458Z,11.70
2023-05-10T08:29:50.007Z,9.68
2023-05-10T08:32:16.634Z,12.00
2023-05-10T08:34:43.210Z,13.35
2023-05-10T08:37:09.723Z,13.00
2023-05-10T08:39:36.801Z,13.98
2023-05-10T08:42:05.721Z,15.52
2023-05-10T08:44:35.285Z,12.40
2023-05-10T08:47:07.949Z,16.38
2023-05-10T08:49:35.107Z,15.03
2023-05-10T08:52:06.375Z,12.50
2023-05-10T08:54:34.052Z,15.32
2023-05-10T08:57:00.944Z,12.50
2023-05-10T08:59:28.058Z,13.15
2023-05-10T09:01:56.672Z,16.40
2023-05-10T09:04:24.379Z,15.75
2023-05-10T09:06:50.900Z,14.13
2023-05-10T09:09:18.754Z,14.32
2023-05-10T09:11:45.859Z,11.88
2023-05-10T09:14:13.488Z,11.70
2023-05-10T09:16:42.123Z,13.50
2023-05-10T09:19:09.604Z,11.88
2023-05-10T09:21:40.011Z,12.77
2023-05-10T09:24:07.714Z,10.05
2023-05-10T09:26:36.242Z,10.87
2023-05-10T09:29:08.042Z,6.90
2023-05-10T09:31:55.570Z,7.88
2023-05-10T09:34:30.371Z,9.25
2023-05-10T09:37:01.632Z,7.13
2023-05-10T09:39:35.130Z,6.47
2023-05-10T09:42:07.241Z,9.20
2023-05-10T09:44:34.834Z,8.90
2023-05-10T09:47:02.820Z,7.68
2023-05-10T09:49:29.429Z,5.50
2023-05-10T09:52:07.232Z,5.40
2023-05-10T09:54:36.148Z,6.63
2023-05-10T09:57:03.273Z,5.45
2023-05-10T09:59:30.249Z,6.78
2023-05-10T10:01:58.272Z,3.55
2023-05-10T10:04:24.827Z,5.90
2023-05-10T10:07:02.557Z,4.68
2023-05-10T10:09:30.210Z,3.85
2023-05-10T10:11:57.540Z,8.07
2023-05-10T10:14:27.263Z,5.82
2023-05-10T10:17:06.574Z,8.40
2023-05-10T10:19:36.048Z,4.85
2023-05-10T10:22:02.730Z,15.43
2023-05-10T10:24:29.062Z,5.82
2023-05-10T10:27:03.307Z,6.10
2023-05-10T10:29:49.407Z,7.90
2023-05-10T10:32:39.429Z,10.98
2023-05-10T10:35:07.492Z,7.78
2023-05-10T10:37:47.742Z,8.75
2023-05-10T10:40:28.162Z,8.55
2023-05-10T10:42:55.769Z,8.00
2023-05-10T10:45:23.547Z,5.25
2023-05-10T10:47:54.579Z,7.18
2023-05-10T10:50:21.046Z,6.55
2023-05-10T10:52:49.603Z,8.02
2023-05-10T10:55:24.585Z,7.80
2023-05-10T10:57:53.138Z,6.85
2023-05-10T11:00:23.703Z,8.00
2023-05-10T11:03:11.646Z,7.25
2023-05-10T11:05:39.798Z,7.20
2023-05-10T11:08:26.599Z,4.60
2023-05-10T11:10:59.866Z,5.82
2023-05-10T11:13:33.836Z,6.40
2023-05-10T11:16:11.648Z,7.90
2023-05-10T11:18:38.835Z,7.25
2023-05-10T11:21:10.118Z,4.73
2023-05-10T11:23:49.626Z,5.15
2023-05-10T11:26:16.252Z,5.53
2023-05-10T11:28:49.738Z,7.90
2023-05-10T11:31:20.268Z,7.82
2023-05-10T11:33:48.288Z,5.90
2023-05-10T11:36:20.028Z,5.72
2023-05-10T11:38:47.376Z,6.60
2023-05-10T11:41:14.405Z,6.25
2023-05-10T11:43:41.649Z,13.25
2023-05-10T11:46:13.058Z,8.53
2023-05-10T11:48:40.633Z,6.18
2023-05-10T11:51:11.349Z,6.88
2023-05-10T11:53:38.916Z,5.80
2023-05-10T11:56:10.321Z,5.55
2023-05-10T11:58:38.649Z,6.70
2023-05-10T12:01:08.005Z,5.50
2023-05-10T12:03:35.304Z,3.72
2023-05-10T12:06:02.982Z,6.82
2023-05-10T12:08:30.680Z,4.55
2023-05-10T12:11:08.557Z,4.47
2023-05-10T12:13:43.242Z,3.65
2023-05-10T12:16:30.072Z,5.05
2023-05-10T12:19:01.295Z,3.60
2023-05-10T12:21:31.338Z,2.90
2023-05-10T12:24:03.341Z,4.47
2023-05-10T12:26:30.724Z,4.95
2023-05-10T12:29:16.888Z,4.18
2023-05-10T12:31:53.359Z,5.60
2023-05-10T12:34:37.099Z,3.58
2023-05-10T12:37:04.554Z,4.37
2023-05-10T12:39:42.102Z,6.43
2023-05-10T12:42:08.657Z,4.55
2023-05-10T12:44:35.037Z,3.08
2023-05-10T12:47:01.482Z,4.53
2023-05-10T12:49:27.856Z,2.63
2023-05-10T12:51:54.290Z,3.60
2023-05-10T12:54:20.678Z,3.95
2023-05-10T12:56:47.222Z,3.33
2023-05-10T12:59:13.535Z,3.65
2023-05-10T13:01:40.157Z,3.63
2023-05-10T13:04:06.577Z,3.28
2023-05-10T13:06:33.047Z,4.32
2023-05-10T13:08:59.464Z,2.35
2023-05-10T13:11:26.132Z,4.65
2023-05-10T13:13:52.768Z,3.80
2023-05-10T13:16:19.193Z,5.78
2023-05-10T13:18:45.625Z,4.43
2023-05-10T13:21:12.212Z,3.22
2023-05-10T13:23:38.587Z,5.03
2023-05-10T13:26:05.094Z,5.47
2023-05-10T13:28:31.589Z,3.70
2023-05-10T13:30:58.024Z,5.15
2023-05-10T13:33:24.450Z,5.57
2023-05-10T13:35:50.786Z,5.22
2023-05-10T13:38:17.187Z,4.20
2023-05-10T13:40:43.575Z,7.15
2023-05-10T13:43:09.913Z,6.50
2023-05-10T13:45:36.645Z,6.13
2023-05-10T13:48:03.352Z,4.45
2023-05-10T13:50:31.042Z,6.83
2023-05-10T13:52:57.935Z,5.35
2023-05-10T13:55:24.307Z,6.15
2023-05-10T13:57:50.673Z,7.57
2023-05-10T14:00:17.389Z,6.43
2023-05-10T14:02:43.859Z,8.80
2023-05-10T14:05:10.305Z,5.97
2023-05-10T14:07:36.669Z,6.43
2023-05-10T14:10:03.715Z,8.98
2023-05-10T14:12:31.152Z,10.27
2023-05-10T14:14:58.977Z,5.73
2023-05-10T14:17:25.378Z,8.50
2023-05-10T14:19:51.865Z,7.43
2023-05-10T14:22:19.161Z,7.68
2023-05-10T14:24:47.696Z,7.45
2023-05-10T14:27:14.200Z,6.13
2023-05-10T14:29:40.756Z,7.63
2023-05-10T14:32:07.391Z,8.40
2023-05-10T14:34:34.001Z,7.13
2023-05-10T14:37:00.528Z,7.55
2023-05-10T14:39:30.346Z,7.27
2023-05-10T14:41:57.017Z,8.88
2023-05-10T14:44:23.711Z,10.18
2023-05-10T14:46:50.583Z,10.68
2023-05-10T14:49:16.905Z,8.63
2023-05-10T14:51:43.394Z,8.63
2023-05-10T14:54:13.179Z,10.25
2023-05-10T14:56:39.802Z,8.20
2023-05-10T14:59:06.267Z,9.70
2023-05-10T15:01:33.925Z,8.98
2023-05-10T15:04:00.949Z,9.43
2023-05-10T15:06:35.556Z,8.93
2023-05-10T15:09:04.180Z,11.30
2023-05-10T15:11:30.733Z,11.05
2023-05-10T15:13:57.121Z,11.93
2023-05-10T15:16:23.514Z,7.93
2023-05-10T15:18:49.968Z,10.85
2023-05-10T15:21:16.371Z,10.35
2023-05-10T15:23:42.705Z,9.32
2023-05-10T15:26:09.025Z,14.48
2023-05-10T15:28:35.499Z,8.43
2023-05-10T15:31:01.838Z,10.05
2023-05-10T15:33:28.431Z,8.93
2023-05-10T15:35:54.886Z,10.05
2023-05-10T15:38:21.233Z,9.57
2023-05-10T15:40:47.567Z,9.37
2023-05-10T15:43:14.771Z,7.78
2023-05-10T15:45:41.487Z,11.63
2023-05-10T15:48:07.893Z,9.75
2023-05-10T15:50:34.276Z,9.45
2023-05-10T15:53:00.600Z,8.67
2023-05-10T15:55:27.776Z,9.07
2023-05-10T15:57:54.134Z,9.50
2023-05-10T16:00:20.572Z,8.38
2023-05-10T16:02:47.050Z,6.13
2023-05-10T16:05:14.121Z,8.43
2023-05-10T16:07:41.757Z,6.63
2023-05-10T16:10:10.236Z,7.60
2023-05-10T16:12:36.979Z,7.28
2023-05-10T16:15:03.549Z,5.63
2023-05-10T16:17:29.941Z,6.43
2023-05-10T16:19:56.360Z,9.70
2023-05-10T16:22:27.239Z,6.40
2023-05-10T16:24:53.864Z,5.32
2023-05-10T16:27:20.268Z,6.85
2023-05-10T16:29:47.742Z,6.80
2023-05-10T16:32:14.138Z,6.35
2023-05-10T16:34:40.499Z,5.93
2023-05-10T16:37:06.893Z,5.60
2023-05-10T16:39:33.227Z,4.93
2023-05-10T16:41:59.557Z,5.23
2023-05-10T16:44:26.110Z,6.28
2023-05-10T16:46:53.099Z,6.50
2023-05-10T16:49:19.459Z,4.90
2023-05-10T16:51:46.144Z,6.40
2023-05-10T16:54:12.490Z,5.83
2023-05-10T16:56:38.893Z,6.07
2023-05-10T16:59:05.714Z,5.25
2023-05-10T17:01:33.753Z,6.30
2023-05-10T17:04:00.306Z,4.13
2023-05-10T17:06:26.686Z,4.60
2023-05-10T17:08:52.997Z,4.22
2023-05-10T17:11:20.980Z,5.30
2023-05-10T17:13:47.544Z,5.32
2023-05-10T17:16:14.059Z,3.85
2023-05-10T17:18:41.577Z,4.73
2023-05-10T17:21:09.203Z,5.00
2023-05-10T17:23:35.528Z,5.70
2023-05-10T17:26:04.494Z,4.85
2023-05-10T17:28:31.013Z,4.07
2023-05-10T17:30:57.939Z,2.77
2023-05-10T17:33:24.297Z,4.25
2023-05-10T17:35:50.680Z,3.47
2023-05-10T17:38:17.073Z,2.75
2023-05-10T17:40:43.666Z,3.60
2023-05-10T17:43:09.967Z,4.93
2023-05-10T17:45:36.313Z,4.28
2023-05-10T17:48:03.446Z,4.95
2023-05-10T17:50:29.811Z,3.42
2023-05-10T17:52:56.327Z,5.03
2023-05-10T17:55:22.669Z,4.63
2023-05-10T17:57:51.081Z,7.03
2023-05-10T18:00:18.350Z,6.15
2023-05-10T18:02:44.794Z,5.00
2023-05-10T18:05:11.842Z,5.88
2023-05-10T18:07:38.490Z,4.97
2023-05-10T18:10:05.240Z,7.07
2023-05-10T18:12:31.602Z,4.20
2023-05-10T18:14:57.921Z,4.57
2023-05-10T18:17:24.911Z,6.88
2023-05-10T18:19:51.470Z,5.53
2023-05-10T18:22:17.809Z,4.82
2023-05-10T18:24:44.607Z,5.97
2023-05-10T18:27:11.231Z,7.78
2023-05-10T18:29:37.672Z,6.03
2023-05-10T18:32:04.502Z,6.40
2023-05-10T18:34:30.826Z,4.80
2023-05-10T18:36:57.257Z,6.60
2023-05-10T18:39:24.369Z,7.75
2023-05-10T18:41:50.855Z,7.32
2023-05-10T18:44:19.069Z,5.20
2023-05-10T18:46:46.223Z,5.47
2023-05-10T18:49:12.711Z,6.85
2023-05-10T18:51:39.291Z,8.45
2023-05-10T18:54:05.759Z,10.13
2023-05-10T18:56:32.154Z,6.93
2023-05-10T18:58:58.474Z,10.82
2023-05-10T19:01:24.944Z,8.27
2023-05-10T19:03:51.335Z,8.00
2023-05-10T19:06:17.656Z,10.25
2023-05-10T19:08:44.037Z,8.57
2023-05-10T19:11:10.375Z,7.80
2023-05-10T19:13:36.833Z,8.38
2023-05-10T19:16:05.314Z,7.82
2023-05-10T19:18:32.478Z,7.97
2023-05-10T19:21:01.598Z,8.23
2023-05-10T19:23:29.037Z,10.88
2023-05-10T19:25:55.558Z,8.93
2023-05-10T19:28:22.164Z,9.75
2023-05-10T19:30:50.170Z,8.38
2023-05-10T19:33:19.736Z,9.70
2023-05-10T19:35:46.117Z,8.57
2023-05-10T19:38:12.526Z,8.13
2023-05-10T19:40:38.956Z,10.38
2023-05-10T19:43:05.332Z,12.05
2023-05-10T19:45:31.691Z,10.60
2023-05-10T19:47:58.088Z,12.85
2023-05-10T19:50:24.702Z,8.63
2023-05-10T19:52:51.460Z,10.82
2023-05-10T19:55:27.789Z,9.75
2023-05-10T19:57:54.263Z,12.90
2023-05-10T20:00:20.880Z,14.73
2023-05-10T20:02:47.280Z,11.07
2023-05-10T20:05:13.661Z,11.15
2023-05-10T20:07:40.010Z,10.73
2023-05-10T20:10:06.936Z,12.13
2023-05-10T20:12:33.492Z,11.23
2023-05-10T20:14:59.807Z,10.38
2023-05-10T20:17:26.208Z,16.00
2023-05-10T20:19:52.958Z,17.13
2023-05-10T20:22:19.291Z,11.93
2023-05-10T20:24:45.627Z,8.65
2023-05-10T20:27:12.017Z,7.93
2023-05-10T20:29:38.338Z,7.25
2023-05-10T20:32:05.155Z,6.55
2023-05-10T20:34:31.605Z,6.77
2023-05-10T20:36:58.092Z,7.40
2023-05-10T20:39:24.405Z,11.02
2023-05-10T20:41:50.763Z,11.10
2023-05-10T20:44:17.107Z,11.50
2023-05-10T20:46:43.571Z,9.53
2023-05-10T20:49:09.952Z,12.02
2023-05-10T20:51:36.271Z,14.32
2023-05-10T20:54:04.244Z,9.32
2023-05-10T20:56:31.175Z,10.43
2023-05-10T20:58:57.700Z,11.43
2023-05-10T21:01:25.030Z,10.20
2023-05-10T21:03:51.528Z,14.68
2023-05-10T21:06:17.894Z,11.23
2023-05-10T21:08:44.244Z,11.57
2023-05-10T21:11:10.643Z,9.63
2023-05-10T21:13:37.144Z,15.18
2023-05-10T21:16:04.802Z,11.75
2023-05-10T21:18:31.333Z,14.45
2023-05-10T21:20:58.605Z,13.23
2023-05-10T21:23:25.078Z,13.57
2023-05-10T21:25:51.642Z,10.10
2023-05-10T21:28:18.041Z,13.68
2023-05-10T21:30:44.393Z,13.73
2023-05-10T21:33:11.308Z,12.68
2023-05-10T21:35:39.329Z,12.63
2023-05-10T21:38:05.848Z,11.70
2023-05-10T21:40:32.487Z,9.73
2023-05-10T21:42:58.793Z,8.23
2023-05-10T21:45:25.122Z,9.13
2023-05-10T21:47:51.528Z,14.43
2023-05-10T21:50:18.298Z,7.78
2023-05-10T21:52:44.789Z,11.10
2023-05-10T21:55:11.200Z,15.07
2023-05-10T21:57:37.556Z,12.43
2023-05-10T22:00:04.824Z,9.47
2023-05-10T22:02:31.316Z,10.93
2023-05-10T22:04:57.991Z,12.90
2023-05-10T22:07:24.332Z,9.98
2023-05-10T22:09:50.752Z,12.75
2023-05-10T22:12:17.071Z,13.33
2023-05-10T22:14:43.468Z,9.57
2023-05-10T22:17:10.069Z,15.32
2023-05-10T22:19:36.558Z,10.50
2023-05-10T22:22:02.995Z,13.93
2023-05-10T22:24:30.118Z,12.03
2023-05-10T22:26:56.619Z,13.23
2023-05-10T22:29:23.656Z,13.50
2023-05-10T22:31:50.075Z,10.55
2023-05-10T22:34:16.419Z,11.15
2023-05-10T22:36:42.954Z,11.17
2023-05-10T22:39:09.297Z,12.82
2023-05-10T22:41:35.881Z,14.85
2023-05-10T22:44:02.664Z,15.00
2023-05-10T22:46:29.577Z,12.25
2023-05-10T22:48:56.428Z,14.77
2023-05-10T22:51:22.933Z,10.77
2023-05-10T22:53:49.373Z,12.20
2023-05-10T22:56:15.820Z,11.57
2023-05-10T22:58:42.213Z,13.05
2023-05-10T23:01:08.560Z,10.43
2023-05-10T23:03:35.332Z,9.25
2023-05-10T23:06:01.635Z,12.90
2023-05-10T23:08:28.168Z,14.35
2023-05-10T23:10:54.674Z,11.98
2023-05-10T23:13:21.691Z,12.47
2023-05-10T23:15:48.404Z,16.85
2023-05-10T23:18:15.415Z,18.70
2023-05-10T23:20:42.754Z,15.05
2023-05-10T23:23:10.310Z,18.02
2023-05-10T23:25:37.596Z,12.30
2023-05-10T23:28:04.541Z,17.23
2023-05-10T23:30:31.597Z,14.40
2023-05-10T23:32:58.027Z,15.07
2023-05-10T23:35:24.398Z,16.23
2023-05-10T23:37:50.885Z,14.97
2023-05-10T23:40:17.436Z,12.50
2023-05-10T23:42:44.103Z,13.88
2023-05-10T23:45:11.264Z,16.92
2023-05-10T23:47:37.741Z,12.60
2023-05-10T23:50:05.260Z,18.03
2023-05-10T23:52:31.650Z,17.92
2023-05-10T23:54:58.073Z,16.13
2023-05-10T23:57:24.540Z,18.75
2023-05-10T23:59:50.982Z,16.25
